createdAt,value
2018-01-11T00:00:40.902Z,5.43
2018-01-11T00:03:08.586Z,6.47
2018-01-11T00:05:36.194Z,7.20
2018-01-11T00:08:04.625Z,8.20
2018-01-11T00:10:32.249Z,9.05
2018-01-11T00:13:00.646Z,8.68
2018-01-11T00:15:28.296Z,7.70
2018-01-11T00:17:55.915Z,7.03
2018-01-11T00:20:23.580Z,7.15
2018-01-11T00:22:51.168Z,7.93
2018-01-11T00:25:18.779Z,7.18
2018-01-11T00:27:46.441Z,7.25
2018-01-11T00:30:14.104Z,7.35
2018-01-11T00:32:41.702Z,5.82
2018-01-11T00:35:10.113Z,5.60
2018-01-11T00:37:37.700Z,5.20
2018-01-11T00:40:05.280Z,4.55
2018-01-11T00:42:32.916Z,4.47
2018-01-11T00:45:00.620Z,5.85
2018-01-11T00:47:28.995Z,5.40
2018-01-11T00:49:57.385Z,5.87
2018-01-11T00:52:25.857Z,6.22
2018-01-11T00:54:53.455Z,6.15
2018-01-11T00:57:21.078Z,5.37
2018-01-11T00:59:48.725Z,5.35
2018-01-11T01:02:16.372Z,5.72
2018-01-11T01:04:44.028Z,6.10
2018-01-11T01:07:11.616Z,6.05
2018-01-11T01:09:40.040Z,6.22
2018-01-11T01:12:07.657Z,5.97
2018-01-11T01:14:35.300Z,7.28
2018-01-11T01:17:02.884Z,8.00
2018-01-11T01:19:30.534Z,7.90
2018-01-11T01:21:58.139Z,7.85
2018-01-11T01:24:25.798Z,8.80
2018-01-11T01:26:53.452Z,8.40
2018-01-11T01:29:21.078Z,8.65
2018-01-11T01:31:48.700Z,8.23
2018-01-11T01:34:16.389Z,8.90
2018-01-11T01:36:44.000Z,9.40
2018-01-11T01:39:11.680Z,9.10
2018-01-11T01:41:39.336Z,9.45
2018-01-11T01:44:06.962Z,8.85
2018-01-11T01:46:35.312Z,9.60
2018-01-11T01:49:02.935Z,9.65
2018-01-11T01:51:30.526Z,10.30
2018-01-11T01:53:58.214Z,10.77
2018-01-11T01:56:25.789Z,9.70
2018-01-11T01:58:53.439Z,11.35
2018-01-11T02:01:21.040Z,12.80
2018-01-11T02:03:48.647Z,11.70
2018-01-11T02:06:16.283Z,14.93
2018-01-11T02:08:43.923Z,13.30
2018-01-11T02:11:11.597Z,16.40
2018-01-11T02:13:39.198Z,15.75
2018-01-11T02:16:06.801Z,16.25
2018-01-11T02:18:34.398Z,15.23
2018-01-11T02:21:02.013Z,15.48
2018-01-11T02:23:29.651Z,15.30
2018-01-11T02:25:57.273Z,15.30
2018-01-11T02:28:24.910Z,16.58
2018-01-11T02:30:52.537Z,14.70
2018-01-11T02:33:20.904Z,15.85
2018-01-11T02:35:49.357Z,15.43
2018-01-11T02:38:16.943Z,16.35
2018-01-11T02:40:44.574Z,17.65
2018-01-11T02:43:12.161Z,15.90
2018-01-11T02:45:39.788Z,15.85
2018-01-11T02:48:07.392Z,14.30
2018-01-11T02:50:36.363Z,17.40
2018-01-11T02:53:03.982Z,17.12
2018-01-11T02:55:31.591Z,17.48
2018-01-11T02:57:59.224Z,17.62
2018-01-11T03:00:28.775Z,18.20
2018-01-11T03:02:57.171Z,18.90
2018-01-11T03:05:25.598Z,20.10
2018-01-11T03:07:53.202Z,19.70
2018-01-11T03:10:20.829Z,21.15
2018-01-11T03:12:48.471Z,19.85
2018-01-11T03:15:16.051Z,21.00
2018-01-11T03:17:43.657Z,22.40
2018-01-11T03:20:11.245Z,19.98
2018-01-11T03:22:38.889Z,18.55
2018-01-11T03:25:06.518Z,19.45
2018-01-11T03:27:34.928Z,19.52
2018-01-11T03:30:02.585Z,18.20
2018-01-11T03:32:30.224Z,18.20
2018-01-11T03:34:58.620Z,18.62
2018-01-11T03:37:26.276Z,17.40
2018-01-11T03:39:53.864Z,16.42
2018-01-11T03:42:21.485Z,17.02
2018-01-11T03:44:49.872Z,15.88
2018-01-11T03:47:17.484Z,15.52
2018-01-11T03:49:45.111Z,15.95
2018-01-11T03:52:12.728Z,14.82
2018-01-11T03:54:40.347Z,16.70
2018-01-11T03:57:07.983Z,18.83
2018-01-11T03:59:35.623Z,19.73
2018-01-11T04:02:03.987Z,20.08
2018-01-11T04:04:31.631Z,19.10
2018-01-11T04:06:59.254Z,20.75
2018-01-11T04:09:26.905Z,19.27
2018-01-11T04:11:54.525Z,18.52
2018-01-11T04:14:22.156Z,19.62
2018-01-11T04:16:49.786Z,21.60
2018-01-11T04:19:17.398Z,18.95
2018-01-11T04:21:45.072Z,20.80
2018-01-11T04:24:12.701Z,19.80
2018-01-11T04:26:40.315Z,22.20
2018-01-11T04:29:08.728Z,20.85
2018-01-11T04:31:36.375Z,21.58
2018-01-11T04:34:03.990Z,26.60
2018-01-11T04:36:31.615Z,25.62
2018-01-11T04:38:59.248Z,29.90
2018-01-11T04:41:26.879Z,29.95
2018-01-11T04:43:54.465Z,41.37
2018-01-11T04:46:22.852Z,32.58
2018-01-11T04:48:50.502Z,25.65
2018-01-11T04:51:18.873Z,19.55
2018-01-11T04:53:47.256Z,19.70
2018-01-11T04:56:15.659Z,19.23
2018-01-11T04:58:43.242Z,22.90
2018-01-11T05:01:10.864Z,23.70
2018-01-11T05:03:38.501Z,24.58
2018-01-11T05:06:06.105Z,24.40
2018-01-11T05:08:33.707Z,22.20
2018-01-11T05:11:01.336Z,21.92
2018-01-11T05:13:29.004Z,22.35
2018-01-11T05:15:56.595Z,23.30
2018-01-11T05:18:24.200Z,21.98
2018-01-11T05:20:51.771Z,22.05
2018-01-11T05:23:19.407Z,20.08
2018-01-11T05:25:47.737Z,22.70
2018-01-11T05:28:15.374Z,21.10
2018-01-11T05:30:42.936Z,21.23
2018-01-11T05:33:10.530Z,20.67
2018-01-11T05:35:38.166Z,20.90
2018-01-11T05:38:05.799Z,21.05
2018-01-11T05:40:33.415Z,20.17
2018-01-11T05:43:01.030Z,14.65
2018-01-11T05:45:28.642Z,15.80
2018-01-11T05:47:56.254Z,17.40
2018-01-11T05:50:23.892Z,17.73
2018-01-11T05:52:52.298Z,17.00
2018-01-11T05:55:19.923Z,19.23
2018-01-11T05:57:48.315Z,35.45
2018-01-11T06:00:16.719Z,25.95
2018-01-11T06:02:44.335Z,26.37
2018-01-11T06:05:12.691Z,22.37
2018-01-11T06:07:40.290Z,21.42
2018-01-11T06:10:08.699Z,19.15
2018-01-11T06:12:36.323Z,17.92
2018-01-11T06:15:04.663Z,15.77
2018-01-11T06:17:32.247Z,19.70
2018-01-11T06:20:00.612Z,18.05
2018-01-11T06:22:28.209Z,19.50
2018-01-11T06:24:55.776Z,18.60
2018-01-11T06:27:23.381Z,16.55
2018-01-11T06:29:51.018Z,14.80
2018-01-11T06:32:18.619Z,18.65
2018-01-11T06:34:46.164Z,18.35
2018-01-11T06:37:13.783Z,18.30
2018-01-11T06:39:41.415Z,17.20
2018-01-11T06:42:09.790Z,17.12
2018-01-11T06:44:38.179Z,16.10
2018-01-11T06:47:06.587Z,16.80
2018-01-11T06:52:06.003Z,16.67
2018-01-11T06:54:33.534Z,38.75
2018-01-11T06:57:01.883Z,31.10
2018-01-11T06:59:29.479Z,31.33
2018-01-11T07:01:57.093Z,25.00
2018-01-11T07:04:24.673Z,24.25
2018-01-11T07:06:53.291Z,26.50
2018-01-11T07:09:20.901Z,27.87
2018-01-11T07:11:48.479Z,40.55
2018-01-11T07:14:16.138Z,45.45
2018-01-11T07:16:43.708Z,35.42
2018-01-11T07:19:12.099Z,37.05
2018-01-11T07:21:40.477Z,59.80
2018-01-11T07:24:08.834Z,45.60
2018-01-11T07:26:36.426Z,35.35
2018-01-11T07:29:04.024Z,35.67
2018-01-11T07:31:31.635Z,23.05
2018-01-11T07:34:00.006Z,21.83
2018-01-11T07:36:28.354Z,25.45
2018-01-11T07:38:55.987Z,45.20
2018-01-11T07:41:23.578Z,31.27
2018-01-11T07:43:51.210Z,22.30
2018-01-11T07:46:18.852Z,28.70
2018-01-11T07:48:46.454Z,24.87
2018-01-11T07:51:14.095Z,36.90
2018-01-11T07:53:42.501Z,33.20
2018-01-11T07:56:10.079Z,29.45
2018-01-11T07:58:37.687Z,35.22
2018-01-11T08:01:05.299Z,15.93
2018-01-11T08:03:32.888Z,15.43
2018-01-11T08:06:00.523Z,12.63
2018-01-11T08:08:28.122Z,10.75
2018-01-11T08:10:55.753Z,11.93
2018-01-11T08:13:24.126Z,11.40
2018-01-11T08:15:52.484Z,11.23
2018-01-11T08:18:20.110Z,11.23
2018-01-11T08:20:47.719Z,28.10
2018-01-11T08:23:15.307Z,47.22
2018-01-11T08:25:42.942Z,32.05
2018-01-11T08:28:11.336Z,31.75
2018-01-11T08:30:39.691Z,15.52
2018-01-11T08:33:07.288Z,11.50
2018-01-11T08:35:34.924Z,12.65
2018-01-11T08:38:03.284Z,11.00
2018-01-11T08:40:30.900Z,11.30
2018-01-11T08:42:58.480Z,9.10
2018-01-11T08:45:26.053Z,8.95
2018-01-11T08:47:53.648Z,9.95
2018-01-11T08:50:21.968Z,9.70
2018-01-11T08:52:49.594Z,15.57
2018-01-11T08:55:17.164Z,11.15
2018-01-11T08:57:44.792Z,11.43
2018-01-11T09:00:12.376Z,10.70
2018-01-11T09:02:39.963Z,10.43
2018-01-11T09:05:07.584Z,9.50
2018-01-11T09:07:35.999Z,10.30
2018-01-11T09:10:03.610Z,11.80
2018-01-11T09:12:31.245Z,10.70
2018-01-11T09:14:58.851Z,11.10
2018-01-11T09:17:26.487Z,10.50
2018-01-11T09:19:54.063Z,10.57
2018-01-11T09:22:22.444Z,11.07
2018-01-11T09:24:50.776Z,9.60
2018-01-11T09:27:18.349Z,10.20
2018-01-11T09:29:45.984Z,10.40
2018-01-11T09:32:13.592Z,10.40
2018-01-11T09:34:41.169Z,10.23
2018-01-11T09:37:08.767Z,10.77
2018-01-11T09:39:36.359Z,10.43
2018-01-11T09:42:03.961Z,10.30
2018-01-11T09:44:31.539Z,9.60
2018-01-11T09:46:59.163Z,10.13
2018-01-11T09:49:27.527Z,10.20
2018-01-11T09:51:55.103Z,9.90
2018-01-11T09:54:23.447Z,10.00
2018-01-11T09:56:51.037Z,9.50
2018-01-11T09:59:19.462Z,9.60
2018-01-11T10:01:47.067Z,9.80
2018-01-11T10:04:15.491Z,10.57
2018-01-11T10:06:43.092Z,21.57
2018-01-11T10:09:10.719Z,10.93
2018-01-11T10:11:38.315Z,10.27
2018-01-11T10:14:05.885Z,20.20
2018-01-11T10:16:33.433Z,12.67
2018-01-11T10:19:01.031Z,8.77
2018-01-11T10:21:29.374Z,19.53
2018-01-11T10:23:56.949Z,8.40
2018-01-11T10:26:25.319Z,8.40
2018-01-11T10:28:52.901Z,8.30
2018-01-11T10:31:21.263Z,8.70
2018-01-11T10:33:49.599Z,8.83
2018-01-11T10:36:17.232Z,8.90
2018-01-11T10:38:44.798Z,7.90
2018-01-11T10:41:12.397Z,8.30
2018-01-11T10:43:40.023Z,8.00
2018-01-11T10:46:07.648Z,8.20
2018-01-11T10:48:36.037Z,8.10
2018-01-11T10:51:04.427Z,7.93
2018-01-11T10:53:32.005Z,8.70
2018-01-11T10:55:59.652Z,7.77
2018-01-11T10:58:27.264Z,8.63
2018-01-11T11:01:00.419Z,8.50
2018-01-11T11:03:28.025Z,8.90
2018-01-11T11:05:55.633Z,9.30
2018-01-11T11:08:23.277Z,9.20
2018-01-11T11:10:50.859Z,9.53
2018-01-11T11:13:18.454Z,10.50
2018-01-11T11:15:46.058Z,10.77
2018-01-11T11:18:13.639Z,10.20
2018-01-11T11:20:41.241Z,11.00
2018-01-11T11:23:08.830Z,10.70
2018-01-11T11:25:36.431Z,12.20
2018-01-11T11:28:04.044Z,11.67
2018-01-11T11:30:45.202Z,10.07
2018-01-11T11:33:12.814Z,13.10
2018-01-11T11:35:40.401Z,10.30
2018-01-11T11:38:08.030Z,11.20
2018-01-11T11:40:35.627Z,9.50
2018-01-11T11:43:03.233Z,10.07
2018-01-11T11:45:30.860Z,9.35
2018-01-11T11:47:58.536Z,10.73
2018-01-11T11:50:26.080Z,9.80
2018-01-11T11:52:53.687Z,11.43
2018-01-11T11:55:21.308Z,9.88
2018-01-11T11:57:48.903Z,8.50
2018-01-11T12:00:16.482Z,8.70
2018-01-11T12:02:44.063Z,7.40
2018-01-11T12:05:11.684Z,8.68
2018-01-11T12:07:39.273Z,8.75
2018-01-11T12:10:06.837Z,7.10
2018-01-11T12:12:34.433Z,7.15
2018-01-11T12:15:02.054Z,7.43
2018-01-11T12:17:29.655Z,6.70
2018-01-11T12:19:57.991Z,7.00
2018-01-11T12:22:25.570Z,7.65
2018-01-11T12:24:53.175Z,8.02
2018-01-11T12:27:20.765Z,8.07
2018-01-11T12:29:48.431Z,8.75
2018-01-11T12:32:15.999Z,8.13
2018-01-11T12:34:43.604Z,8.27
2018-01-11T12:37:11.248Z,8.85
2018-01-11T12:39:39.596Z,9.90
2018-01-11T12:42:07.265Z,9.65
2018-01-11T12:44:34.887Z,9.23
2018-01-11T12:47:02.480Z,8.57
2018-01-11T12:49:30.091Z,8.95
2018-01-11T12:51:57.682Z,9.20
2018-01-11T12:54:25.310Z,8.38
2018-01-11T12:56:52.876Z,9.65
2018-01-11T12:59:20.462Z,9.45
2018-01-11T13:01:48.057Z,9.10
2018-01-11T13:04:15.639Z,12.10
2018-01-11T13:06:44.005Z,10.32
2018-01-11T13:09:11.576Z,9.10
2018-01-11T13:11:39.191Z,8.50
2018-01-11T13:14:06.820Z,8.18
2018-01-11T13:16:34.439Z,7.28
2018-01-11T13:19:02.075Z,7.68
2018-01-11T13:21:29.666Z,7.12
2018-01-11T13:23:58.019Z,7.85
2018-01-11T13:26:25.624Z,9.20
2018-01-11T13:28:53.230Z,8.95
2018-01-11T13:31:20.842Z,8.65
2018-01-11T13:33:49.163Z,9.02
2018-01-11T13:36:16.759Z,9.05
2018-01-11T13:38:44.367Z,10.48
2018-01-11T13:41:11.970Z,10.02
2018-01-11T13:43:39.582Z,10.63
2018-01-11T13:46:07.188Z,10.85
2018-01-11T13:48:34.771Z,15.25
2018-01-11T13:51:03.172Z,12.88
2018-01-11T13:53:30.800Z,10.30
2018-01-11T13:55:58.425Z,11.15
2018-01-11T13:58:26.035Z,11.80
2018-01-11T14:00:54.389Z,12.13
2018-01-11T14:03:21.953Z,11.43
2018-01-11T14:05:49.597Z,12.15
2018-01-11T14:08:17.186Z,11.65
2018-01-11T14:10:45.549Z,11.38
2018-01-11T14:13:13.158Z,11.68
2018-01-11T14:15:40.783Z,12.30
2018-01-11T14:18:09.206Z,11.40
2018-01-11T14:20:36.831Z,10.88
2018-01-11T14:23:05.248Z,10.50
2018-01-11T14:25:32.868Z,8.98
2018-01-11T14:28:00.440Z,9.43
2018-01-11T14:30:28.847Z,9.07
2018-01-11T14:32:56.443Z,8.80
2018-01-11T14:35:24.089Z,8.55
2018-01-11T14:37:51.715Z,9.32
2018-01-11T14:40:19.308Z,9.65
2018-01-11T14:42:46.883Z,9.05
2018-01-11T14:45:14.467Z,9.30
2018-01-11T14:47:42.816Z,9.82
2018-01-11T14:50:10.464Z,10.35
2018-01-11T14:52:38.089Z,9.27
2018-01-11T14:55:05.686Z,9.20
2018-01-11T14:57:33.301Z,8.95
2018-01-11T15:00:00.915Z,10.10
2018-01-11T15:05:55.746Z,9.10
2018-01-11T15:08:23.386Z,9.50
2018-01-11T15:10:51.017Z,8.38
2018-01-11T15:13:18.642Z,9.75
2018-01-11T15:15:47.064Z,8.90
2018-01-11T15:18:14.682Z,9.50
2018-01-11T15:20:42.294Z,10.20
2018-01-11T15:23:09.923Z,8.82
2018-01-11T15:25:38.306Z,9.17
2018-01-11T15:28:05.941Z,9.25
2018-01-11T15:30:33.580Z,10.35
2018-01-11T15:33:01.206Z,11.32
2018-01-11T15:35:28.822Z,11.43
2018-01-11T15:37:56.448Z,12.25
2018-01-11T15:40:24.059Z,13.73
2018-01-11T15:42:52.420Z,13.35
2018-01-11T15:45:20.033Z,12.60
2018-01-11T15:47:47.663Z,11.07
2018-01-11T15:50:16.077Z,11.35
2018-01-11T15:52:43.695Z,11.32
2018-01-11T15:55:12.071Z,11.88
2018-01-11T15:57:40.441Z,11.73
2018-01-11T16:00:08.053Z,12.60
2018-01-11T16:02:35.647Z,12.50
2018-01-11T16:05:03.301Z,14.70
2018-01-11T16:07:30.915Z,12.63
2018-01-11T16:09:58.482Z,11.32
2018-01-11T16:12:26.125Z,11.70
2018-01-11T16:14:53.683Z,10.85
2018-01-11T16:17:22.069Z,9.82
2018-01-11T16:19:49.671Z,10.90
2018-01-11T16:22:17.279Z,10.70
2018-01-11T16:24:45.652Z,10.50
2018-01-11T16:27:14.103Z,11.07
2018-01-11T16:29:41.749Z,11.57
2018-01-11T16:32:09.419Z,9.10
2018-01-11T16:34:37.039Z,9.10
2018-01-11T16:37:04.647Z,8.77
2018-01-11T16:39:32.266Z,9.10
2018-01-11T16:41:59.915Z,10.95
2018-01-11T16:44:28.260Z,10.93
2018-01-11T16:46:55.853Z,12.55
2018-01-11T16:49:23.536Z,11.77
2018-01-11T16:51:51.138Z,12.10
2018-01-11T16:54:18.720Z,11.00
2018-01-11T16:56:47.114Z,10.80
2018-01-11T16:59:14.712Z,11.52
2018-01-11T17:01:42.310Z,11.77
2018-01-11T17:04:09.932Z,10.85
2018-01-11T17:06:37.505Z,11.25
2018-01-11T17:09:05.115Z,13.25
2018-01-11T17:11:32.716Z,15.20
2018-01-11T17:14:00.367Z,14.05
2018-01-11T17:16:27.979Z,13.73
2018-01-11T17:18:56.382Z,15.05
2018-01-11T17:21:23.995Z,14.05
2018-01-11T17:23:51.595Z,14.25
2018-01-11T17:26:19.201Z,16.80
2018-01-11T17:28:46.827Z,14.07
2018-01-11T17:31:14.442Z,18.33
2018-01-11T17:33:42.000Z,15.93
2018-01-11T17:36:09.609Z,16.12
2018-01-11T17:38:37.239Z,17.12
2018-01-11T17:41:06.125Z,16.60
2018-01-11T17:43:34.546Z,19.90
2018-01-11T17:46:02.180Z,19.48
2018-01-11T17:48:29.792Z,18.65
2018-01-11T17:50:57.426Z,16.70
2018-01-11T17:53:25.059Z,17.05
2018-01-11T17:55:53.423Z,17.80
2018-01-11T17:58:21.798Z,18.15
2018-01-11T18:00:49.415Z,15.57
2018-01-11T18:03:17.033Z,18.10
2018-01-11T18:05:44.746Z,16.55
2018-01-11T18:08:13.791Z,18.80
2018-01-11T18:10:42.211Z,18.35
2018-01-11T18:13:14.443Z,21.35
2018-01-11T18:15:42.075Z,18.17
2018-01-11T18:18:09.693Z,20.15
2018-01-11T18:20:37.308Z,18.58
2018-01-11T18:23:05.691Z,16.83
2018-01-11T18:25:34.148Z,19.23
2018-01-11T18:28:01.860Z,19.27
2018-01-11T18:30:29.495Z,18.73
2018-01-11T18:32:57.967Z,18.77
2018-01-11T18:35:25.597Z,19.75
2018-01-11T18:37:53.279Z,18.60
2018-01-11T18:40:20.938Z,19.05
2018-01-11T18:42:48.608Z,18.98
2018-01-11T18:45:36.421Z,18.87
2018-01-11T18:48:04.070Z,17.90
2018-01-11T18:50:31.767Z,17.58
2018-01-11T18:52:59.367Z,20.80
2018-01-11T18:55:27.075Z,20.90
2018-01-11T18:57:54.742Z,20.95
2018-01-11T19:00:22.384Z,21.52
2018-01-11T19:02:51.979Z,19.52
2018-01-11T19:05:19.639Z,23.10
2018-01-11T19:07:47.290Z,21.25
2018-01-11T19:10:14.947Z,24.30
2018-01-11T19:12:43.518Z,27.05
2018-01-11T19:15:11.992Z,29.90
2018-01-11T19:17:40.452Z,24.60
2018-01-11T19:20:08.082Z,34.13
2018-01-11T19:22:35.740Z,32.22
2018-01-11T19:25:03.395Z,28.20
2018-01-11T19:27:31.001Z,24.30
2018-01-11T19:29:59.456Z,27.23
2018-01-11T19:32:27.933Z,26.50
2018-01-11T19:34:55.645Z,27.65
2018-01-11T19:37:36.853Z,28.80
2018-01-11T19:40:16.054Z,30.62
2018-01-11T19:42:44.445Z,24.20
2018-01-11T19:45:12.132Z,23.33
2018-01-11T19:47:39.838Z,28.27
2018-01-11T19:50:08.255Z,27.10
2018-01-11T19:52:35.865Z,23.15
2018-01-11T19:55:03.507Z,28.48
2018-01-11T19:57:31.213Z,24.42
2018-01-11T19:59:58.847Z,23.87
2018-01-11T20:02:27.257Z,22.20
2018-01-11T20:04:54.871Z,23.20
2018-01-11T20:07:22.531Z,22.67
2018-01-11T20:09:50.213Z,20.90
2018-01-11T20:12:17.910Z,19.48
2018-01-11T20:14:45.547Z,19.67
2018-01-11T20:17:13.173Z,26.08
2018-01-11T20:19:40.874Z,23.85
2018-01-11T20:22:09.287Z,23.33
2018-01-11T20:24:36.917Z,25.70
2018-01-11T20:27:04.576Z,25.08
2018-01-11T20:29:32.258Z,28.70
2018-01-11T20:31:59.893Z,26.92
2018-01-11T20:34:27.580Z,49.92
2018-01-11T20:36:55.201Z,43.22
2018-01-11T20:39:22.893Z,33.60
2018-01-11T20:41:51.308Z,26.05
2018-01-11T20:44:18.982Z,28.05
2018-01-11T20:46:46.619Z,25.58
2018-01-11T20:49:14.275Z,27.90
2018-01-11T20:51:41.943Z,30.33
2018-01-11T20:54:09.568Z,36.63
2018-01-11T20:56:37.189Z,30.27
2018-01-11T20:59:04.789Z,37.00
2018-01-11T21:01:33.232Z,41.50
2018-01-11T21:04:00.987Z,33.78
2018-01-11T21:06:28.633Z,27.67
2018-01-11T21:08:56.319Z,28.08
2018-01-11T21:11:24.105Z,40.83
2018-01-11T21:13:51.873Z,39.85
2018-01-11T21:16:20.380Z,31.90
2018-01-11T21:18:48.812Z,29.42
2018-01-11T21:21:16.507Z,29.92
2018-01-11T21:23:44.152Z,30.52
2018-01-11T21:26:11.813Z,37.88
2018-01-11T21:28:39.526Z,33.08
2018-01-11T21:31:07.231Z,38.40
2018-01-11T21:33:38.202Z,35.40
2018-01-11T21:36:05.897Z,30.45
2018-01-11T21:38:33.572Z,32.55
2018-01-11T21:41:01.287Z,36.75
2018-01-11T21:43:29.708Z,31.37
2018-01-11T21:45:57.389Z,33.00
2018-01-11T21:48:25.014Z,33.45
2018-01-11T21:50:52.739Z,31.83
2018-01-11T21:53:20.395Z,33.05
2018-01-11T21:55:48.101Z,31.25
2018-01-11T21:58:15.816Z,33.88
2018-01-11T22:00:43.564Z,33.75
2018-01-11T22:03:11.252Z,40.28
2018-01-11T22:05:39.716Z,40.85
2018-01-11T22:08:07.448Z,37.97
2018-01-11T22:10:35.110Z,37.80
2018-01-11T22:13:02.768Z,36.10
2018-01-11T22:15:30.431Z,37.75
2018-01-11T22:17:58.049Z,36.90
2018-01-11T22:20:25.727Z,37.90
2018-01-11T22:22:54.197Z,39.55
2018-01-11T22:25:22.776Z,41.45
2018-01-11T22:27:51.174Z,37.75
2018-01-11T22:30:18.836Z,33.60
2018-01-11T22:32:47.288Z,37.05
2018-01-11T22:35:14.942Z,34.22
2018-01-11T22:37:42.642Z,33.50
2018-01-11T22:40:11.096Z,32.25
2018-01-11T22:42:38.771Z,32.03
2018-01-11T22:45:07.176Z,32.80
2018-01-11T22:47:34.840Z,32.50
2018-01-11T22:50:02.495Z,35.70
2018-01-11T22:52:30.248Z,37.83
2018-01-11T22:54:57.930Z,33.28
2018-01-11T22:57:25.591Z,32.70
2018-01-11T22:59:53.291Z,31.58
2018-01-11T23:02:21.005Z,31.98
2018-01-11T23:04:48.657Z,32.25
2018-01-11T23:07:17.242Z,31.50
2018-01-11T23:09:44.909Z,31.65
2018-01-11T23:12:12.554Z,30.65
2018-01-11T23:14:40.987Z,30.60
2018-01-11T23:17:08.718Z,32.67
2018-01-11T23:19:36.361Z,30.02
2018-01-11T23:22:04.780Z,30.90
2018-01-11T23:24:32.449Z,31.17
2018-01-11T23:27:00.054Z,29.92
2018-01-11T23:29:28.457Z,31.48
2018-01-11T23:31:56.100Z,32.03
2018-01-11T23:34:24.502Z,32.05
2018-01-11T23:36:52.937Z,30.05
2018-01-11T23:39:20.597Z,30.75
2018-01-11T23:41:48.283Z,29.55
2018-01-11T23:44:16.668Z,30.05
2018-01-11T23:46:44.286Z,30.23
2018-01-11T23:49:11.908Z,30.52
2018-01-11T23:51:39.578Z,31.62
2018-01-11T23:54:07.309Z,31.65
2018-01-11T23:56:35.712Z,31.25
2018-01-11T23:59:03.367Z,30.73
